GLO1649 SBTE-SBGR
Flight info
| Callsign | GLO1649 |
|---|---|
| Flight time | N/A |
| Altitude | 30000 |
| Route | GUEST UZ5 PAMUB DCT GEMIX DCT EPGEM DCT NIBSA DCT NISNI UZ38 VUNOX |
| Aircraft | B738/M-SDE2E3FGHIRWXY/LB1 |
Departure
| Time | 2026-05-06 10:47 |
|---|---|
| Airport | Senador Petrônio Portela Airport (SBTE) |
Arrival
| Time | N/A |
|---|---|
| Airport | São Paulo/Guarulhos–Governor André Franco Montoro International Airport (SBGR) |
| Time | Latitude | Longitude | Altitude | Speed | Heading |
|---|---|---|---|---|---|
| 2026-05-06 10:19 | -5.06324 | -42.82181 | 214 ft | 0 kts | 84° |
| 2026-05-06 10:40 | -5.06325 | -42.82191 | 214 ft | 3 kts | 77° |
| 2026-05-06 10:40 | -5.06328 | -42.82209 | 214 ft | 4 kts | 127° |
| 2026-05-06 10:40 | -5.06309 | -42.82217 | 214 ft | 3 kts | 174° |
| 2026-05-06 10:41 | -5.06323 | -42.82215 | 214 ft | 2 kts | 174° |
| 2026-05-06 10:41 | -5.06325 | -42.82215 | 214 ft | 0 kts | 174° |
| 2026-05-06 10:44 | -5.06344 | -42.82213 | 214 ft | 7 kts | 174° |
| 2026-05-06 10:44 | -5.06412 | -42.82207 | 214 ft | 12 kts | 174° |
| 2026-05-06 10:45 | -5.06494 | -42.82197 | 216 ft | 12 kts | 173° |
| 2026-05-06 10:45 | -5.06570 | -42.82222 | 215 ft | 11 kts | 217° |
| 2026-05-06 10:45 | -5.06632 | -42.82270 | 216 ft | 12 kts | 213° |
| 2026-05-06 10:45 | -5.06734 | -42.82295 | 214 ft | 18 kts | 179° |
| 2026-05-06 10:46 | -5.06874 | -42.82284 | 217 ft | 19 kts | 174° |
| 2026-05-06 10:46 | -5.06963 | -42.82296 | 213 ft | 11 kts | 134° |
| 2026-05-06 10:46 | -5.06928 | -42.82277 | 213 ft | 0 kts | 356° |
| 2026-05-06 10:47 | -5.06713 | -42.82299 | 214 ft | 71 kts | 354° |
| 2026-05-06 10:47 | -5.05960 | -42.82379 | 214 ft | 143 kts | 354° |
| 2026-05-06 10:47 | -5.04881 | -42.82493 | 721 ft | 155 kts | 354° |
| 2026-05-06 10:47 | -5.03885 | -42.82597 | 1799 ft | 132 kts | 354° |
| 2026-05-06 10:48 | -5.03013 | -42.82680 | 2544 ft | 119 kts | 353° |
| 2026-05-06 10:48 | -5.02136 | -42.82781 | 2774 ft | 140 kts | 356° |
| 2026-05-06 10:48 | -5.01036 | -42.82875 | 2840 ft | 180 kts | 358° |
| 2026-05-06 10:48 | -4.99690 | -42.82998 | 3077 ft | 208 kts | 354° |
| 2026-05-06 10:49 | -4.98276 | -42.83592 | 3193 ft | 238 kts | 322° |
| 2026-05-06 10:49 | -4.97375 | -42.85053 | 3349 ft | 261 kts | 282° |
| 2026-05-06 10:49 | -4.97532 | -42.86872 | 3737 ft | 269 kts | 243° |
| 2026-05-06 10:49 | -4.98742 | -42.88248 | 4465 ft | 264 kts | 209° |
| 2026-05-06 10:50 | -5.00338 | -42.89144 | 5301 ft | 265 kts | 206° |
| 2026-05-06 10:50 | -5.01825 | -42.90281 | 5961 ft | 276 kts | 227° |
| 2026-05-06 10:50 | -5.02610 | -42.92054 | 6631 ft | 287 kts | 262° |
| 2026-05-06 10:50 | -5.02342 | -42.94031 | 7299 ft | 291 kts | 290° |
| 2026-05-06 10:51 | -5.01691 | -42.95953 | 7999 ft | 293 kts | 282° |
| 2026-05-06 10:51 | -5.01514 | -42.97996 | 8628 ft | 296 kts | 267° |
| 2026-05-06 10:51 | -5.01637 | -43.00055 | 9342 ft | 296 kts | 263° |
| 2026-05-06 10:51 | -5.01834 | -43.02099 | 9962 ft | 300 kts | 263° |
| 2026-05-06 10:52 | -5.02254 | -43.04182 | 10539 ft | 304 kts | 244° |
| 2026-05-06 10:52 | -5.03501 | -43.05813 | 11109 ft | 301 kts | 213° |
| 2026-05-06 10:52 | -5.05431 | -43.06653 | 11317 ft | 311 kts | 186° |
| 2026-05-06 10:52 | -5.07642 | -43.06848 | 11499 ft | 328 kts | 179° |
| 2026-05-06 10:53 | -5.09983 | -43.06952 | 11641 ft | 347 kts | 180° |
| 2026-05-06 10:53 | -5.12462 | -43.07087 | 11773 ft | 365 kts | 180° |
| 2026-05-06 10:53 | -5.15048 | -43.07249 | 12035 ft | 377 kts | 181° |
| 2026-05-06 10:53 | -5.17692 | -43.07425 | 12475 ft | 383 kts | 181° |
| 2026-05-06 10:54 | -5.20350 | -43.07607 | 13043 ft | 384 kts | 181° |
| 2026-05-06 10:54 | -5.23022 | -43.07791 | 13621 ft | 386 kts | 181° |
| 2026-05-06 10:54 | -5.25706 | -43.07976 | 14134 ft | 388 kts | 181° |
| 2026-05-06 10:54 | -5.28411 | -43.08161 | 14608 ft | 391 kts | 181° |
| 2026-05-06 10:55 | -5.31129 | -43.08346 | 15074 ft | 394 kts | 181° |
| 2026-05-06 10:55 | -5.33874 | -43.08533 | 15547 ft | 396 kts | 181° |
| 2026-05-06 10:55 | -5.36635 | -43.08721 | 15999 ft | 399 kts | 182° |
| 2026-05-06 10:55 | -5.39415 | -43.08909 | 16440 ft | 401 kts | 182° |
| 2026-05-06 10:56 | -5.42212 | -43.09098 | 16884 ft | 404 kts | 182° |
| 2026-05-06 10:56 | -5.45025 | -43.09288 | 17306 ft | 406 kts | 182° |
| 2026-05-06 10:56 | -5.47856 | -43.09480 | 17711 ft | 409 kts | 182° |
| 2026-05-06 10:56 | -5.50703 | -43.09673 | 18093 ft | 411 kts | 182° |
| 2026-05-06 10:57 | -5.53569 | -43.09866 | 18488 ft | 414 kts | 182° |
| 2026-05-06 10:57 | -5.56410 | -43.10060 | 18874 ft | 415 kts | 182° |
| 2026-05-06 10:57 | -5.59299 | -43.10257 | 19271 ft | 417 kts | 182° |
| 2026-05-06 10:57 | -5.62196 | -43.10454 | 19620 ft | 419 kts | 182° |
| 2026-05-06 10:58 | -5.65114 | -43.10651 | 19997 ft | 420 kts | 183° |
| 2026-05-06 10:58 | -5.68015 | -43.11061 | 20340 ft | 424 kts | 195° |
| 2026-05-06 10:58 | -5.70711 | -43.12252 | 20732 ft | 425 kts | 207° |
| 2026-05-06 10:58 | -5.73326 | -43.13645 | 21109 ft | 426 kts | 207° |
| 2026-05-06 10:59 | -5.75971 | -43.15020 | 21426 ft | 428 kts | 206° |
| 2026-05-06 10:59 | -5.78627 | -43.16366 | 21746 ft | 429 kts | 206° |
| 2026-05-06 10:59 | -5.81308 | -43.17701 | 22053 ft | 431 kts | 206° |
| 2026-05-06 10:59 | -5.84003 | -43.19032 | 22374 ft | 432 kts | 206° |
| 2026-05-06 11:00 | -5.86704 | -43.20361 | 22695 ft | 432 kts | 206° |
| 2026-05-06 11:00 | -5.89412 | -43.21692 | 22990 ft | 434 kts | 206° |
| 2026-05-06 11:00 | -5.91973 | -43.22952 | 23260 ft | 435 kts | 206° |
| 2026-05-06 11:00 | -5.94694 | -43.24291 | 23532 ft | 436 kts | 206° |
| 2026-05-06 11:01 | -5.97411 | -43.25630 | 23794 ft | 437 kts | 206° |
| 2026-05-06 11:01 | -6.00156 | -43.26983 | 24050 ft | 438 kts | 206° |
| 2026-05-06 11:01 | -6.02888 | -43.28330 | 24318 ft | 439 kts | 206° |
| 2026-05-06 11:01 | -6.05632 | -43.29684 | 24602 ft | 439 kts | 206° |
| 2026-05-06 11:02 | -6.08340 | -43.31019 | 24841 ft | 440 kts | 206° |
| 2026-05-06 11:02 | -6.11091 | -43.32377 | 25067 ft | 441 kts | 206° |
| 2026-05-06 11:02 | -6.13849 | -43.33737 | 25299 ft | 442 kts | 206° |
| 2026-05-06 11:02 | -6.16612 | -43.35101 | 25526 ft | 443 kts | 206° |
| 2026-05-06 11:03 | -6.19372 | -43.36463 | 25754 ft | 443 kts | 206° |
| 2026-05-06 11:03 | -6.22151 | -43.37816 | 25966 ft | 444 kts | 204° |
| 2026-05-06 11:03 | -6.25051 | -43.38898 | 26143 ft | 445 kts | 195° |
| 2026-05-06 11:03 | -6.28095 | -43.39499 | 26359 ft | 446 kts | 189° |
| 2026-05-06 11:04 | -6.31162 | -43.39987 | 26579 ft | 446 kts | 189° |
| 2026-05-06 11:04 | -6.34225 | -43.40491 | 26744 ft | 448 kts | 190° |
| 2026-05-06 11:04 | -6.37302 | -43.41013 | 26929 ft | 449 kts | 190° |
| 2026-05-06 11:04 | -6.40386 | -43.41549 | 27116 ft | 449 kts | 190° |
| 2026-05-06 11:05 | -6.43458 | -43.42089 | 27375 ft | 448 kts | 190° |
| 2026-05-06 11:05 | -6.46525 | -43.42633 | 27665 ft | 446 kts | 191° |
| 2026-05-06 11:05 | -6.49578 | -43.43175 | 27958 ft | 444 kts | 191° |
| 2026-05-06 11:05 | -6.52621 | -43.43716 | 28240 ft | 443 kts | 191° |
| 2026-05-06 11:06 | -6.55650 | -43.44254 | 28535 ft | 441 kts | 191° |
| 2026-05-06 11:06 | -6.58625 | -43.44781 | 28838 ft | 439 kts | 191° |
| 2026-05-06 11:06 | -6.61629 | -43.45314 | 29111 ft | 438 kts | 191° |
| 2026-05-06 11:06 | -6.64628 | -43.45847 | 29369 ft | 437 kts | 191° |
| 2026-05-06 11:07 | -6.67606 | -43.46375 | 29694 ft | 434 kts | 191° |
| 2026-05-06 11:07 | -6.70578 | -43.46902 | 29978 ft | 433 kts | 191° |
| 2026-05-06 11:07 | -6.73552 | -43.47430 | 29969 ft | 435 kts | 191° |
| 2026-05-06 11:08 | -6.79496 | -43.48484 | 30001 ft | 431 kts | 191° |
| 2026-05-06 11:08 | -6.85382 | -43.49527 | 30010 ft | 429 kts | 191° |
| 2026-05-06 11:09 | -6.91248 | -43.50567 | 30024 ft | 427 kts | 191° |
| 2026-05-06 11:09 | -6.97099 | -43.51606 | 30020 ft | 427 kts | 191° |
| 2026-05-06 11:10 | -7.02916 | -43.52639 | 30017 ft | 427 kts | 191° |
| 2026-05-06 11:10 | -7.08782 | -43.53681 | 30016 ft | 428 kts | 191° |
| 2026-05-06 11:11 | -7.14647 | -43.54722 | 30019 ft | 428 kts | 191° |
| 2026-05-06 11:11 | -7.20525 | -43.55767 | 30016 ft | 429 kts | 191° |
| 2026-05-06 11:12 | -7.26412 | -43.56812 | 30021 ft | 429 kts | 191° |
| 2026-05-06 11:12 | -7.32286 | -43.57857 | 30027 ft | 430 kts | 191° |
| 2026-05-06 11:13 | -7.38178 | -43.58905 | 30023 ft | 430 kts | 191° |
| 2026-05-06 11:13 | -7.44077 | -43.59953 | 30026 ft | 429 kts | 191° |
| 2026-05-06 11:14 | -7.49923 | -43.60993 | 30025 ft | 429 kts | 191° |
| 2026-05-06 11:14 | -7.55801 | -43.62039 | 30028 ft | 428 kts | 191° |
| 2026-05-06 11:15 | -7.61668 | -43.63084 | 30025 ft | 428 kts | 191° |
| 2026-05-06 11:15 | -7.67534 | -43.64128 | 30028 ft | 427 kts | 191° |
| 2026-05-06 11:16 | -7.73373 | -43.65168 | 30030 ft | 426 kts | 191° |
| 2026-05-06 11:16 | -7.79212 | -43.66208 | 30025 ft | 425 kts | 191° |
| 2026-05-06 11:17 | -7.85043 | -43.67247 | 30032 ft | 425 kts | 191° |
| 2026-05-06 11:17 | -7.90826 | -43.68278 | 30034 ft | 425 kts | 191° |
| 2026-05-06 11:18 | -7.96685 | -43.69323 | 30037 ft | 424 kts | 191° |
| 2026-05-06 11:18 | -8.02463 | -43.70353 | 30034 ft | 425 kts | 191° |
| 2026-05-06 11:19 | -8.08287 | -43.71392 | 30042 ft | 425 kts | 191° |
| 2026-05-06 11:19 | -8.14105 | -43.72430 | 30036 ft | 425 kts | 191° |
| 2026-05-06 11:20 | -8.19932 | -43.73470 | 30042 ft | 425 kts | 191° |
| 2026-05-06 11:20 | -8.25754 | -43.74509 | 30035 ft | 425 kts | 191° |
| 2026-05-06 11:21 | -8.31587 | -43.75551 | 30041 ft | 425 kts | 191° |
| 2026-05-06 11:21 | -8.36428 | -43.76416 | 30036 ft | 425 kts | 191° |
| 2026-05-06 11:22 | -8.42258 | -43.77459 | 30038 ft | 425 kts | 191° |
| 2026-05-06 11:22 | -8.48085 | -43.78501 | 30036 ft | 425 kts | 191° |
| 2026-05-06 11:23 | -8.53900 | -43.79540 | 30047 ft | 425 kts | 191° |
| 2026-05-06 11:23 | -8.59724 | -43.80581 | 30044 ft | 425 kts | 191° |
| 2026-05-06 11:24 | -8.65552 | -43.81623 | 30049 ft | 425 kts | 191° |
| 2026-05-06 11:24 | -8.71341 | -43.82661 | 30045 ft | 425 kts | 191° |
| 2026-05-06 11:25 | -8.77161 | -43.83703 | 30046 ft | 425 kts | 191° |
| 2026-05-06 11:25 | -8.82993 | -43.84748 | 30045 ft | 425 kts | 191° |
| 2026-05-06 11:26 | -8.88802 | -43.85788 | 30049 ft | 424 kts | 191° |
| 2026-05-06 11:26 | -8.94612 | -43.86829 | 30046 ft | 423 kts | 191° |
| 2026-05-06 11:27 | -9.00402 | -43.87867 | 30042 ft | 423 kts | 191° |
| 2026-05-06 11:27 | -9.06194 | -43.88906 | 30042 ft | 422 kts | 191° |
| 2026-05-06 11:28 | -9.11981 | -43.89943 | 30047 ft | 422 kts | 191° |
| 2026-05-06 11:28 | -9.17731 | -43.90977 | 30043 ft | 422 kts | 191° |
| 2026-05-06 11:29 | -9.23509 | -43.92013 | 30045 ft | 421 kts | 191° |
| 2026-05-06 11:29 | -9.29277 | -43.93049 | 30049 ft | 421 kts | 191° |
| 2026-05-06 11:30 | -9.35057 | -43.94085 | 30050 ft | 421 kts | 191° |
| 2026-05-06 11:30 | -9.40823 | -43.95122 | 30055 ft | 421 kts | 191° |
| 2026-05-06 11:31 | -9.46561 | -43.96154 | 30063 ft | 421 kts | 191° |
| 2026-05-06 11:31 | -9.52332 | -43.97192 | 30067 ft | 421 kts | 191° |
| 2026-05-06 11:32 | -9.58103 | -43.98230 | 30063 ft | 422 kts | 191° |
| 2026-05-06 11:32 | -9.63880 | -43.99269 | 30064 ft | 421 kts | 191° |
| 2026-05-06 11:33 | -9.69647 | -44.00307 | 30063 ft | 421 kts | 191° |
| 2026-05-06 11:33 | -9.75415 | -44.01345 | 30065 ft | 421 kts | 191° |
| 2026-05-06 11:34 | -9.81193 | -44.02387 | 30063 ft | 421 kts | 191° |
| 2026-05-06 11:34 | -9.86966 | -44.03427 | 30063 ft | 421 kts | 191° |
| 2026-05-06 11:35 | -9.92735 | -44.04467 | 30064 ft | 421 kts | 191° |
| 2026-05-06 11:35 | -9.98460 | -44.05499 | 30066 ft | 420 kts | 191° |
| 2026-05-06 11:36 | -10.04213 | -44.06537 | 30063 ft | 420 kts | 191° |
| 2026-05-06 11:36 | -10.09975 | -44.07577 | 30066 ft | 420 kts | 191° |
| 2026-05-06 11:37 | -10.15726 | -44.08615 | 30063 ft | 419 kts | 191° |
| 2026-05-06 11:37 | -10.21471 | -44.09653 | 30068 ft | 420 kts | 191° |
| 2026-05-06 11:38 | -10.27222 | -44.10692 | 30067 ft | 419 kts | 191° |
| 2026-05-06 11:38 | -10.32972 | -44.11731 | 30061 ft | 420 kts | 191° |
| 2026-05-06 11:39 | -10.38677 | -44.12763 | 30093 ft | 419 kts | 191° |
| 2026-05-06 11:39 | -10.44420 | -44.13801 | 30103 ft | 419 kts | 191° |
| 2026-05-06 11:40 | -10.50155 | -44.14839 | 30126 ft | 419 kts | 191° |
| 2026-05-06 11:40 | -10.55899 | -44.15850 | 30130 ft | 419 kts | 190° |
| 2026-05-06 11:41 | -10.61669 | -44.16781 | 30131 ft | 420 kts | 190° |
| 2026-05-06 11:41 | -10.67435 | -44.17704 | 30134 ft | 420 kts | 190° |
| 2026-05-06 11:42 | -10.73213 | -44.18637 | 30130 ft | 420 kts | 190° |
| 2026-05-06 11:42 | -10.78985 | -44.19574 | 30126 ft | 420 kts | 190° |
| 2026-05-06 11:43 | -10.84759 | -44.20514 | 30127 ft | 420 kts | 190° |
| 2026-05-06 11:43 | -10.90517 | -44.21452 | 30128 ft | 419 kts | 190° |
| 2026-05-06 11:44 | -10.99155 | -44.22861 | 30128 ft | 418 kts | 190° |
| 2026-05-06 11:44 | -11.04895 | -44.23798 | 30129 ft | 418 kts | 190° |
| 2026-05-06 11:45 | -11.10631 | -44.24733 | 30138 ft | 417 kts | 190° |
| 2026-05-06 11:45 | -11.16360 | -44.25667 | 30140 ft | 416 kts | 190° |
| 2026-05-06 11:46 | -11.22043 | -44.26596 | 30138 ft | 416 kts | 190° |
| 2026-05-06 11:46 | -11.27753 | -44.27527 | 30139 ft | 416 kts | 190° |
| 2026-05-06 11:47 | -11.33461 | -44.28460 | 30138 ft | 415 kts | 190° |
| 2026-05-06 11:47 | -11.39157 | -44.29392 | 30137 ft | 415 kts | 190° |
| 2026-05-06 11:48 | -11.44859 | -44.30324 | 30139 ft | 415 kts | 190° |
| 2026-05-06 11:48 | -11.50559 | -44.31256 | 30139 ft | 415 kts | 190° |
| 2026-05-06 11:49 | -11.56253 | -44.32188 | 30137 ft | 415 kts | 190° |
| 2026-05-06 11:49 | -11.61951 | -44.33121 | 30148 ft | 414 kts | 190° |
| 2026-05-06 11:50 | -11.67647 | -44.34055 | 30147 ft | 414 kts | 190° |
| 2026-05-06 11:50 | -11.73338 | -44.34987 | 30148 ft | 414 kts | 190° |
| 2026-05-06 11:51 | -11.79033 | -44.35921 | 30147 ft | 414 kts | 190° |
| 2026-05-06 11:51 | -11.84717 | -44.36854 | 30146 ft | 414 kts | 190° |
| 2026-05-06 11:52 | -11.90408 | -44.37787 | 30149 ft | 414 kts | 190° |
| 2026-05-06 11:52 | -11.96066 | -44.38716 | 30147 ft | 414 kts | 190° |
| 2026-05-06 11:53 | -12.01761 | -44.39650 | 30156 ft | 414 kts | 190° |
| 2026-05-06 11:53 | -12.07452 | -44.40585 | 30157 ft | 414 kts | 190° |
| 2026-05-06 11:54 | -12.13134 | -44.41520 | 30153 ft | 414 kts | 190° |
| 2026-05-06 11:54 | -12.18816 | -44.42454 | 30154 ft | 413 kts | 190° |
| 2026-05-06 11:55 | -12.24497 | -44.43388 | 30162 ft | 413 kts | 190° |
| 2026-05-06 11:55 | -12.30175 | -44.44323 | 30157 ft | 414 kts | 190° |
| 2026-05-06 11:56 | -12.35829 | -44.45254 | 30158 ft | 414 kts | 190° |
| 2026-05-06 11:56 | -12.41520 | -44.46192 | 30165 ft | 414 kts | 190° |
| 2026-05-06 11:57 | -12.47206 | -44.47128 | 30169 ft | 414 kts | 190° |
| 2026-05-06 11:57 | -12.52893 | -44.48065 | 30165 ft | 414 kts | 190° |
| 2026-05-06 11:58 | -12.58579 | -44.49003 | 30169 ft | 414 kts | 190° |
| 2026-05-06 11:58 | -12.64259 | -44.49939 | 30165 ft | 414 kts | 190° |
| 2026-05-06 11:59 | -12.69912 | -44.50873 | 30170 ft | 413 kts | 191° |
| 2026-05-06 11:59 | -12.75591 | -44.51811 | 30172 ft | 413 kts | 191° |
| 2026-05-06 12:00 | -12.81268 | -44.52749 | 30177 ft | 413 kts | 191° |
| 2026-05-06 12:00 | -12.86952 | -44.53689 | 30176 ft | 413 kts | 191° |
| 2026-05-06 12:01 | -12.92631 | -44.54627 | 30177 ft | 413 kts | 191° |
| 2026-05-06 12:01 | -12.98307 | -44.55567 | 30175 ft | 414 kts | 191° |
| 2026-05-06 12:02 | -13.03790 | -44.56476 | 30175 ft | 414 kts | 191° |
| 2026-05-06 12:02 | -13.09469 | -44.57416 | 30183 ft | 414 kts | 191° |
| 2026-05-06 12:03 | -13.15163 | -44.58359 | 30187 ft | 414 kts | 191° |
| 2026-05-06 12:03 | -13.20847 | -44.59302 | 30181 ft | 414 kts | 191° |
| 2026-05-06 12:04 | -13.26502 | -44.60239 | 30182 ft | 414 kts | 191° |
| 2026-05-06 12:04 | -13.32187 | -44.61182 | 30186 ft | 414 kts | 191° |
| 2026-05-06 12:05 | -13.37887 | -44.62128 | 30185 ft | 414 kts | 191° |
| 2026-05-06 12:05 | -13.43581 | -44.63074 | 30198 ft | 414 kts | 191° |
| 2026-05-06 12:06 | -13.49270 | -44.64020 | 30193 ft | 415 kts | 191° |
| 2026-05-06 12:06 | -13.54974 | -44.64968 | 30194 ft | 415 kts | 191° |
| 2026-05-06 12:07 | -13.60676 | -44.65917 | 30195 ft | 415 kts | 191° |
| 2026-05-06 12:07 | -13.66370 | -44.66865 | 30200 ft | 415 kts | 191° |
| 2026-05-06 12:08 | -13.72067 | -44.67812 | 30212 ft | 414 kts | 191° |
| 2026-05-06 12:08 | -13.77756 | -44.68759 | 30212 ft | 414 kts | 191° |
| 2026-05-06 12:09 | -13.83447 | -44.69710 | 30209 ft | 414 kts | 191° |
| 2026-05-06 12:09 | -13.89130 | -44.70656 | 30215 ft | 413 kts | 191° |
| 2026-05-06 12:10 | -13.94774 | -44.71598 | 30215 ft | 413 kts | 191° |
| 2026-05-06 12:10 | -14.00454 | -44.72545 | 30221 ft | 413 kts | 191° |
| 2026-05-06 12:11 | -14.06130 | -44.73494 | 30219 ft | 413 kts | 191° |
| 2026-05-06 12:11 | -14.11806 | -44.74441 | 30223 ft | 413 kts | 191° |
| 2026-05-06 12:12 | -14.16526 | -44.75230 | 30221 ft | 413 kts | 191° |
| 2026-05-06 12:12 | -14.22204 | -44.76180 | 30219 ft | 413 kts | 191° |
| 2026-05-06 12:13 | -14.27876 | -44.77130 | 30221 ft | 413 kts | 191° |
| 2026-05-06 12:13 | -14.33553 | -44.78080 | 30223 ft | 413 kts | 191° |
| 2026-05-06 12:14 | -14.39229 | -44.79031 | 30224 ft | 413 kts | 191° |
| 2026-05-06 12:14 | -14.44902 | -44.79981 | 30232 ft | 413 kts | 191° |
| 2026-05-06 12:15 | -14.50524 | -44.81129 | 30233 ft | 412 kts | 195° |
| 2026-05-06 12:15 | -14.56083 | -44.82556 | 30233 ft | 412 kts | 195° |
| 2026-05-06 12:16 | -14.61635 | -44.83997 | 30230 ft | 411 kts | 195° |
| 2026-05-06 12:16 | -14.67199 | -44.85412 | 30233 ft | 411 kts | 195° |
| 2026-05-06 12:17 | -14.72755 | -44.86811 | 30237 ft | 411 kts | 195° |
| 2026-05-06 12:17 | -14.78317 | -44.88210 | 30232 ft | 411 kts | 194° |
| 2026-05-06 12:18 | -14.83861 | -44.89603 | 30222 ft | 410 kts | 194° |